createdAt,value
2019-05-07T00:02:18.191Z,10.00
2019-05-07T00:04:46.790Z,9.90
2019-05-07T00:07:15.230Z,9.90
2019-05-07T00:09:43.728Z,9.90
2019-05-07T00:12:12.652Z,9.80
2019-05-07T00:14:42.936Z,9.80
2019-05-07T00:17:13.028Z,9.70
2019-05-07T00:19:43.214Z,9.70
2019-05-07T00:22:12.530Z,9.70
2019-05-07T00:24:42.664Z,9.70
2019-05-07T00:27:13.096Z,9.60
2019-05-07T00:29:42.912Z,9.50
2019-05-07T00:32:12.142Z,9.50
2019-05-07T00:35:02.381Z,9.50
2019-05-07T00:37:46.979Z,9.50
2019-05-07T00:40:17.383Z,9.50
2019-05-07T00:43:03.697Z,9.40
2019-05-07T00:45:41.960Z,9.40
2019-05-07T00:48:10.016Z,9.30
2019-05-07T00:50:41.935Z,9.30
2019-05-07T00:53:12.933Z,9.30
2019-05-07T00:55:43.014Z,9.30
2019-05-07T00:58:13.223Z,9.30
2019-05-07T01:00:42.193Z,9.30
2019-05-07T01:03:12.880Z,9.30
2019-05-07T01:05:43.012Z,9.20
2019-05-07T01:08:13.165Z,9.20
2019-05-07T01:10:42.077Z,9.20
2019-05-07T01:13:12.537Z,9.10
2019-05-07T01:15:42.941Z,9.10
2019-05-07T01:18:12.367Z,9.10
2019-05-07T01:20:42.325Z,9.10
2019-05-07T01:23:13.217Z,9.00
2019-05-07T01:25:43.069Z,9.00
2019-05-07T01:28:13.167Z,9.00
2019-05-07T01:30:43.237Z,8.90
2019-05-07T01:33:25.113Z,8.90
2019-05-07T01:35:57.848Z,8.80
2019-05-07T01:38:26.693Z,8.80
2019-05-07T01:40:55.096Z,8.80
2019-05-07T01:43:23.609Z,8.70
2019-05-07T01:45:53.031Z,8.70
2019-05-07T01:48:22.993Z,8.70
2019-05-07T01:50:52.493Z,8.70
2019-05-07T01:53:22.716Z,8.60
2019-05-07T01:55:52.413Z,8.60
2019-05-07T01:58:22.149Z,8.60
2019-05-07T02:00:53.049Z,8.50
2019-05-07T02:03:23.060Z,8.50
2019-05-07T02:05:58.926Z,8.50
2019-05-07T02:08:46.938Z,8.50
2019-05-07T02:11:17.142Z,8.40
2019-05-07T02:13:45.563Z,8.40
2019-05-07T02:16:13.984Z,8.40
2019-05-07T02:18:42.561Z,8.40
2019-05-07T02:21:12.883Z,8.30
2019-05-07T02:23:42.632Z,8.30
2019-05-07T02:26:13.176Z,8.30
2019-05-07T02:28:42.649Z,8.20
2019-05-07T02:31:14.599Z,8.20
2019-05-07T02:33:43.414Z,8.20
2019-05-07T02:36:14.359Z,8.20
2019-05-07T02:38:53.053Z,8.20
2019-05-07T02:41:23.600Z,8.10
2019-05-07T02:43:53.674Z,8.10
2019-05-07T02:46:36.297Z,8.10
2019-05-07T02:49:04.642Z,8.10
2019-05-07T02:51:34.753Z,8.00
2019-05-07T02:54:13.696Z,8.00
2019-05-07T02:56:43.252Z,8.00
2019-05-07T02:59:13.681Z,8.00
2019-05-07T03:01:43.267Z,7.90
2019-05-07T03:04:12.884Z,7.90
2019-05-07T03:06:44.234Z,7.90
2019-05-07T03:09:14.428Z,7.80
2019-05-07T03:11:43.517Z,7.80
2019-05-07T03:14:14.081Z,7.80
2019-05-07T03:16:45.477Z,7.80
2019-05-07T03:19:13.418Z,7.80
2019-05-07T03:21:54.555Z,7.80
2019-05-07T03:24:25.827Z,7.80
2019-05-07T03:26:54.687Z,7.80
2019-05-07T03:29:24.990Z,7.80
2019-05-07T03:31:58.360Z,7.80
2019-05-07T03:34:36.714Z,7.80
2019-05-07T03:37:06.712Z,7.80
2019-05-07T03:39:35.270Z,7.80
2019-05-07T03:42:04.075Z,7.80
2019-05-07T03:44:36.783Z,7.80
2019-05-07T03:47:23.887Z,7.80
2019-05-07T03:49:53.504Z,7.80
2019-05-07T03:52:24.519Z,7.90
2019-05-07T03:54:54.045Z,7.80
2019-05-07T03:57:23.786Z,7.80
2019-05-07T03:59:53.308Z,7.80
2019-05-07T04:02:23.820Z,7.90
2019-05-07T04:04:52.905Z,7.90
2019-05-07T04:07:23.366Z,7.90
2019-05-07T04:09:53.469Z,7.90
2019-05-07T04:12:23.871Z,7.90
2019-05-07T04:14:53.502Z,7.90
2019-05-07T04:17:26.380Z,7.90
2019-05-07T04:19:53.283Z,7.90
2019-05-07T04:22:26.421Z,7.90
2019-05-07T04:24:53.816Z,7.90
2019-05-07T04:27:26.792Z,8.00
2019-05-07T04:29:55.437Z,8.00
2019-05-07T04:32:25.577Z,7.90
2019-05-07T04:34:55.758Z,7.90
2019-05-07T04:37:24.170Z,8.00
2019-05-07T04:39:53.881Z,8.00
2019-05-07T04:42:24.325Z,8.00
2019-05-07T04:44:54.138Z,8.00
2019-05-07T04:47:36.972Z,8.00
2019-05-07T04:49:53.646Z,8.00
2019-05-07T04:52:23.993Z,8.00
2019-05-07T04:54:52.896Z,8.00
2019-05-07T04:57:27.045Z,8.00
2019-05-07T04:59:57.111Z,8.10
2019-05-07T05:02:37.505Z,8.00
2019-05-07T05:05:06.084Z,8.10
2019-05-07T05:07:34.529Z,8.10
2019-05-07T05:10:04.369Z,8.10
2019-05-07T05:12:32.836Z,8.10
2019-05-07T05:15:02.177Z,8.10
2019-05-07T05:17:32.017Z,8.10
2019-05-07T05:20:03.614Z,8.10
2019-05-07T05:22:42.529Z,8.20
2019-05-07T05:25:15.842Z,8.20
2019-05-07T05:27:44.252Z,8.20
2019-05-07T05:30:32.628Z,8.30
2019-05-07T05:33:02.202Z,8.30
2019-05-07T05:35:32.070Z,8.40
2019-05-07T05:38:02.904Z,8.40
2019-05-07T05:40:31.981Z,8.40
2019-05-07T05:43:02.261Z,8.40
2019-05-07T05:45:37.760Z,8.50
2019-05-07T05:48:08.391Z,8.50
2019-05-07T05:50:44.010Z,8.40
2019-05-07T05:53:28.924Z,8.40
2019-05-07T05:55:58.995Z,8.50
2019-05-07T05:58:37.901Z,8.50
2019-05-07T06:01:16.853Z,8.50
2019-05-07T06:04:03.078Z,8.60
2019-05-07T06:06:36.022Z,8.60
2019-05-07T06:09:08.786Z,8.70
2019-05-07T06:11:42.955Z,8.70
2019-05-07T06:14:29.140Z,8.80
2019-05-07T06:17:05.287Z,8.90
2019-05-07T06:19:35.368Z,8.90
2019-05-07T06:22:05.509Z,9.00
2019-05-07T06:24:35.637Z,9.10
2019-05-07T06:27:04.544Z,9.20
2019-05-07T06:29:33.111Z,9.20
2019-05-07T06:32:03.316Z,9.30
2019-05-07T06:34:34.114Z,9.30
2019-05-07T06:37:02.402Z,9.40
2019-05-07T06:39:35.480Z,9.40
2019-05-07T06:42:22.142Z,9.40
2019-05-07T06:45:02.949Z,9.50
2019-05-07T06:47:31.973Z,9.50
2019-05-07T06:50:02.970Z,9.60
2019-05-07T06:52:31.939Z,9.50
2019-05-07T06:55:00.551Z,9.60
2019-05-07T06:57:32.819Z,9.60
2019-05-07T07:00:17.452Z,9.60
2019-05-07T07:02:59.133Z,9.70
2019-05-07T07:05:34.955Z,9.70
2019-05-07T07:08:05.460Z,9.70
2019-05-07T07:10:52.141Z,9.80
2019-05-07T07:13:22.817Z,9.80
2019-05-07T07:15:52.167Z,9.80
2019-05-07T07:18:22.905Z,9.90
2019-05-07T07:20:52.419Z,9.90
2019-05-07T07:23:22.630Z,10.00
2019-05-07T07:25:52.241Z,10.00
2019-05-07T07:28:21.893Z,10.00
2019-05-07T07:30:55.133Z,10.10
2019-05-07T07:33:25.258Z,10.20
2019-05-07T07:35:53.708Z,10.20
2019-05-07T07:38:37.673Z,10.30
2019-05-07T07:41:12.762Z,10.30
2019-05-07T07:43:41.927Z,10.40
2019-05-07T07:46:12.707Z,10.50
2019-05-07T07:48:40.689Z,10.50
2019-05-07T07:51:09.128Z,10.50
2019-05-07T07:53:37.555Z,10.60
2019-05-07T07:56:16.396Z,10.70
2019-05-07T07:59:02.630Z,10.80
2019-05-07T08:01:35.528Z,10.80
2019-05-07T08:04:04.148Z,10.90
2019-05-07T08:06:32.752Z,11.00
2019-05-07T08:09:02.190Z,11.00
2019-05-07T08:11:31.986Z,11.00
2019-05-07T08:14:02.331Z,11.00
2019-05-07T08:16:32.734Z,11.00
2019-05-07T08:19:02.953Z,11.10
2019-05-07T08:21:33.206Z,11.20
2019-05-07T08:24:02.824Z,11.20
2019-05-07T08:26:32.321Z,11.30
2019-05-07T08:29:02.759Z,11.30
2019-05-07T08:31:42.473Z,11.30
2019-05-07T08:34:21.992Z,11.40
2019-05-07T08:36:52.606Z,11.50
2019-05-07T08:39:22.363Z,11.60
2019-05-07T08:41:52.701Z,11.60
2019-05-07T08:44:22.913Z,11.70
2019-05-07T08:46:58.740Z,11.80
2019-05-07T08:49:36.782Z,11.80
2019-05-07T08:52:03.019Z,11.90
2019-05-07T08:54:32.288Z,12.00
2019-05-07T08:57:02.434Z,12.00
2019-05-07T08:59:32.140Z,12.10
2019-05-07T09:02:02.938Z,12.20
2019-05-07T09:04:32.668Z,12.20
2019-05-07T09:07:02.727Z,12.30
2019-05-07T09:09:32.459Z,12.40
2019-05-07T09:12:03.072Z,12.50
2019-05-07T09:14:32.057Z,12.60
2019-05-07T09:17:02.633Z,12.60
2019-05-07T09:19:32.295Z,12.60
2019-05-07T09:22:02.146Z,12.70
2019-05-07T09:24:32.951Z,12.60
2019-05-07T09:27:05.969Z,12.60
2019-05-07T09:29:44.809Z,12.60
2019-05-07T09:32:14.948Z,12.50
2019-05-07T09:34:45.029Z,12.50
2019-05-07T09:37:17.916Z,12.50
2019-05-07T09:39:46.330Z,12.50
2019-05-07T09:42:14.798Z,12.40
2019-05-07T09:44:43.218Z,12.40
2019-05-07T09:47:12.933Z,12.40
2019-05-07T09:49:41.933Z,12.40
2019-05-07T09:52:12.287Z,12.40
2019-05-07T09:54:42.698Z,12.40
2019-05-07T09:57:25.213Z,12.50
2019-05-07T09:59:42.625Z,12.50
2019-05-07T10:02:12.291Z,12.40
2019-05-07T10:04:41.801Z,12.40
2019-05-07T10:07:12.603Z,12.40
2019-05-07T10:09:42.575Z,12.40
2019-05-07T10:12:12.749Z,12.50
2019-05-07T10:14:42.059Z,12.50
2019-05-07T10:17:15.223Z,12.60
2019-05-07T10:19:43.853Z,12.60
2019-05-07T10:22:12.692Z,12.70
2019-05-07T10:24:41.925Z,12.80
2019-05-07T10:27:12.684Z,13.00
2019-05-07T10:29:42.783Z,13.10
2019-05-07T10:32:12.788Z,13.20
2019-05-07T10:34:42.255Z,13.40
2019-05-07T10:37:12.008Z,13.60
2019-05-07T10:39:42.887Z,13.70
2019-05-07T10:42:12.354Z,13.80
2019-05-07T10:44:45.656Z,14.00
2019-05-07T10:47:31.869Z,14.10
2019-05-07T10:50:31.715Z,14.30
2019-05-07T10:52:48.376Z,14.30
2019-05-07T10:55:16.952Z,14.40
2019-05-07T10:57:45.418Z,14.40
2019-05-07T11:00:16.953Z,14.40
2019-05-07T11:02:45.449Z,14.40
2019-05-07T11:05:15.348Z,14.30
2019-05-07T11:07:43.802Z,14.20
2019-05-07T11:10:12.612Z,14.20
2019-05-07T11:12:42.476Z,14.20
2019-05-07T11:15:12.581Z,14.20
2019-05-07T11:17:49.065Z,14.20
2019-05-07T11:20:18.007Z,14.40
2019-05-07T11:22:46.422Z,14.50
2019-05-07T11:25:14.938Z,14.50
2019-05-07T11:27:43.351Z,14.60
2019-05-07T11:30:12.529Z,14.50
2019-05-07T11:32:42.980Z,14.60
2019-05-07T11:35:14.646Z,14.70
2019-05-07T11:37:44.156Z,14.90
2019-05-07T11:40:13.216Z,15.10
2019-05-07T11:43:02.522Z,15.20
2019-05-07T11:45:38.470Z,15.20
2019-05-07T11:48:06.920Z,15.40
2019-05-07T11:50:37.012Z,15.60
2019-05-07T11:53:09.638Z,15.60
2019-05-07T11:55:38.075Z,15.70
2019-05-07T11:58:06.484Z,15.80
2019-05-07T12:00:42.748Z,15.90
2019-05-07T12:03:11.390Z,15.80
2019-05-07T12:05:42.125Z,15.80
2019-05-07T12:08:10.026Z,16.00
2019-05-07T12:10:38.585Z,16.20
2019-05-07T12:13:07.031Z,16.40
2019-05-07T12:15:35.436Z,16.60
2019-05-07T12:18:04.058Z,16.80
2019-05-07T12:20:32.617Z,17.00
2019-05-07T12:23:02.824Z,17.20
2019-05-07T12:25:32.069Z,17.20
2019-05-07T12:28:02.378Z,17.10
2019-05-07T12:30:35.593Z,17.00
2019-05-07T12:33:23.983Z,16.90
2019-05-07T12:35:52.541Z,16.70
2019-05-07T12:38:21.897Z,16.70
2019-05-07T12:40:52.243Z,16.60
2019-05-07T12:43:20.911Z,16.60
2019-05-07T12:45:49.402Z,16.50
2019-05-07T12:48:17.845Z,16.40
2019-05-07T12:50:46.290Z,16.40
2019-05-07T12:53:19.089Z,16.30
2019-05-07T12:55:49.122Z,16.30
2019-05-07T12:58:17.660Z,16.40
2019-05-07T13:01:03.767Z,16.60
2019-05-07T13:03:48.993Z,16.90
2019-05-07T13:06:17.465Z,17.20
2019-05-07T13:08:45.982Z,17.40
2019-05-07T13:11:14.402Z,17.50
2019-05-07T13:13:42.964Z,17.70
2019-05-07T13:16:12.841Z,18.00
2019-05-07T13:18:42.270Z,18.20
2019-05-07T13:21:11.890Z,18.30
2019-05-07T13:23:42.163Z,18.40
2019-05-07T13:26:10.774Z,18.60
2019-05-07T13:28:39.189Z,18.70
2019-05-07T13:31:07.631Z,18.90
2019-05-07T13:33:36.509Z,19.00
2019-05-07T13:36:05.083Z,19.20
2019-05-07T13:38:35.786Z,19.30
2019-05-07T13:41:06.206Z,19.30
2019-05-07T13:43:39.535Z,19.40
2019-05-07T13:46:11.890Z,19.50
2019-05-07T13:48:43.946Z,19.50
2019-05-07T13:51:12.316Z,19.50
2019-05-07T13:53:42.723Z,19.40
2019-05-07T13:56:12.843Z,19.20
2019-05-07T13:58:42.841Z,19.00
2019-05-07T14:01:13.045Z,18.80
2019-05-07T14:03:41.535Z,18.60
2019-05-07T14:06:12.619Z,18.70
2019-05-07T14:08:42.361Z,18.80
2019-05-07T14:11:12.231Z,18.90
2019-05-07T14:13:43.425Z,19.10
2019-05-07T14:16:12.988Z,19.20
2019-05-07T14:18:41.433Z,19.20
2019-05-07T14:21:10.025Z,19.20
2019-05-07T14:23:38.472Z,19.00
2019-05-07T14:26:06.899Z,18.80
2019-05-07T14:28:36.189Z,18.50
2019-05-07T14:31:04.613Z,18.40
2019-05-07T14:33:37.416Z,18.40
2019-05-07T14:36:11.641Z,18.40
2019-05-07T14:38:44.599Z,18.20
2019-05-07T14:41:13.145Z,18.10
2019-05-07T14:43:46.096Z,18.10
2019-05-07T14:46:14.514Z,18.10
2019-05-07T14:48:43.892Z,18.10
2019-05-07T14:51:12.669Z,18.00
2019-05-07T14:53:41.640Z,18.00
2019-05-07T14:56:11.864Z,17.90
2019-05-07T14:58:42.278Z,18.00
2019-05-07T15:01:11.777Z,18.20
2019-05-07T15:03:42.253Z,18.20
2019-05-07T15:06:12.603Z,18.20
2019-05-07T15:08:42.887Z,18.20
2019-05-07T15:11:11.595Z,18.30
2019-05-07T15:13:40.192Z,18.40
2019-05-07T15:16:08.747Z,18.50
2019-05-07T15:18:47.863Z,18.60
2019-05-07T15:21:16.410Z,18.80
2019-05-07T15:23:53.605Z,18.80
2019-05-07T15:29:55.983Z,18.90
2019-05-07T15:32:24.565Z,19.00
2019-05-07T15:34:53.174Z,19.00
2019-05-07T15:37:21.662Z,19.00
2019-05-07T15:39:50.084Z,18.90
2019-05-07T15:42:18.641Z,18.90
2019-05-07T15:44:47.097Z,18.90
2019-05-07T15:47:17.166Z,18.90
2019-05-07T15:49:45.609Z,19.00
2019-05-07T15:52:15.733Z,19.00
2019-05-07T15:54:44.201Z,19.00
2019-05-07T15:57:17.053Z,19.00
2019-05-07T15:59:45.519Z,18.90
2019-05-07T16:02:22.598Z,18.80
2019-05-07T16:04:51.086Z,18.90
2019-05-07T16:07:19.509Z,18.80
2019-05-07T16:09:48.005Z,18.80
2019-05-07T16:12:18.142Z,18.70
2019-05-07T16:14:46.550Z,18.70
2019-05-07T16:17:16.623Z,18.70
2019-05-07T16:19:45.055Z,18.60
2019-05-07T16:22:15.126Z,18.60
2019-05-07T16:24:43.697Z,18.60
2019-05-07T16:27:12.287Z,18.40
2019-05-07T16:29:42.107Z,18.40
2019-05-07T16:32:10.701Z,18.40
2019-05-07T16:34:39.096Z,18.40
2019-05-07T16:37:07.831Z,18.30
2019-05-07T16:39:36.333Z,18.30
2019-05-07T16:42:04.914Z,18.20
2019-05-07T16:44:33.350Z,18.20
2019-05-07T16:47:02.850Z,18.20
2019-05-07T16:49:31.856Z,18.20
2019-05-07T16:52:01.863Z,18.10
2019-05-07T16:54:30.463Z,18.10
2019-05-07T16:57:15.672Z,18.00
2019-05-07T16:59:44.275Z,17.90
2019-05-07T17:02:14.371Z,17.80
2019-05-07T17:04:44.433Z,17.70
2019-05-07T17:07:14.593Z,17.60
2019-05-07T17:09:43.034Z,17.50
2019-05-07T17:12:13.134Z,17.40
2019-05-07T17:14:44.280Z,17.40
2019-05-07T17:17:12.730Z,17.40
2019-05-07T17:19:42.527Z,17.30
2019-05-07T17:22:12.080Z,17.30
2019-05-07T17:24:42.296Z,17.30
2019-05-07T17:27:11.908Z,17.20
2019-05-07T17:29:42.766Z,17.20
2019-05-07T17:32:12.255Z,17.10
2019-05-07T17:34:42.110Z,17.10
2019-05-07T17:37:12.513Z,17.10
2019-05-07T17:39:42.570Z,17.00
2019-05-07T17:42:11.857Z,17.00
2019-05-07T17:44:40.448Z,17.00
2019-05-07T17:47:08.886Z,16.90
2019-05-07T17:49:37.311Z,16.90
2019-05-07T17:52:05.908Z,16.80
2019-05-07T17:54:34.410Z,16.70
2019-05-07T17:57:02.977Z,16.60
2019-05-07T17:59:32.084Z,16.60
2019-05-07T18:02:11.213Z,16.50
2019-05-07T18:04:50.579Z,16.40
2019-05-07T18:07:12.001Z,16.40
2019-05-07T18:09:42.434Z,16.40
2019-05-07T18:12:12.089Z,16.40
2019-05-07T18:14:42.395Z,16.40
2019-05-07T18:17:12.703Z,16.30
2019-05-07T18:19:41.146Z,16.30
2019-05-07T18:22:09.742Z,16.20
2019-05-07T18:24:38.237Z,16.20
2019-05-07T18:27:08.477Z,16.10
2019-05-07T18:29:37.078Z,16.10
2019-05-07T18:32:06.664Z,16.00
2019-05-07T18:34:35.203Z,16.00
2019-05-07T18:37:03.863Z,15.90
2019-05-07T18:39:32.602Z,15.90
2019-05-07T18:42:02.797Z,15.80
2019-05-07T18:44:31.520Z,15.80
2019-05-07T18:47:02.163Z,15.70
2019-05-07T18:49:30.284Z,15.70
2019-05-07T18:51:58.875Z,15.60
2019-05-07T18:54:31.372Z,15.60
2019-05-07T18:56:57.651Z,15.50
2019-05-07T18:59:27.763Z,15.40
2019-05-07T19:01:56.334Z,15.40
2019-05-07T19:04:24.950Z,15.40
2019-05-07T19:06:53.594Z,15.30
2019-05-07T19:09:22.472Z,15.30
2019-05-07T19:11:52.261Z,15.20
2019-05-07T19:14:22.639Z,15.10
2019-05-07T19:16:52.607Z,15.10
2019-05-07T19:19:22.181Z,15.00
2019-05-07T19:21:52.821Z,14.90
2019-05-07T19:24:23.115Z,14.90
2019-05-07T19:26:52.922Z,14.80
2019-05-07T19:29:23.295Z,14.80
2019-05-07T19:31:52.485Z,14.70
2019-05-07T19:34:21.807Z,14.60
2019-05-07T19:36:52.087Z,14.60
2019-05-07T19:39:20.729Z,14.60
2019-05-07T19:41:52.372Z,14.50
2019-05-07T19:44:20.956Z,14.50
2019-05-07T19:46:49.710Z,14.40
2019-05-07T19:49:18.327Z,14.40
2019-05-07T19:51:46.857Z,14.40
2019-05-07T19:54:15.525Z,14.30
2019-05-07T19:56:44.979Z,14.30
2019-05-07T19:59:13.579Z,14.30
2019-05-07T20:01:43.820Z,14.20
2019-05-07T20:04:13.322Z,14.20
2019-05-07T20:06:42.926Z,14.20
2019-05-07T20:09:15.601Z,14.10
2019-05-07T20:11:52.327Z,14.10
2019-05-07T20:14:22.342Z,14.10
2019-05-07T20:16:53.011Z,14.00
2019-05-07T20:19:22.955Z,14.00
2019-05-07T20:21:52.385Z,13.90
2019-05-07T20:24:21.946Z,13.90
2019-05-07T20:26:52.661Z,13.80
2019-05-07T20:29:22.818Z,13.80
2019-05-07T20:31:53.190Z,13.80
2019-05-07T20:34:22.138Z,13.80
2019-05-07T20:36:51.834Z,13.70
2019-05-07T20:39:20.460Z,13.70
2019-05-07T20:41:48.922Z,13.60
2019-05-07T20:44:17.505Z,13.60
2019-05-07T20:46:45.939Z,13.60
2019-05-07T20:49:14.545Z,13.50
2019-05-07T20:51:43.014Z,13.50
2019-05-07T20:54:15.862Z,13.50
2019-05-07T20:57:02.238Z,13.50
2019-05-07T20:59:32.741Z,13.50
2019-05-07T21:02:02.296Z,13.40
2019-05-07T21:04:33.004Z,13.40
2019-05-07T21:07:02.109Z,13.40
2019-05-07T21:09:32.635Z,13.40
2019-05-07T21:12:01.147Z,13.40
2019-05-07T21:14:29.594Z,13.40
2019-05-07T21:16:58.193Z,13.30
2019-05-07T21:19:26.663Z,13.30
2019-05-07T21:21:55.085Z,13.30
2019-05-07T21:24:23.506Z,13.30
2019-05-07T21:26:53.094Z,13.30
2019-05-07T21:29:21.656Z,13.30
2019-05-07T21:31:52.303Z,13.20
2019-05-07T21:34:20.341Z,13.20
2019-05-07T21:36:48.806Z,13.20
2019-05-07T21:39:17.259Z,13.20
2019-05-07T21:41:45.689Z,13.20
2019-05-07T21:44:14.116Z,13.10
2019-05-07T21:46:42.764Z,13.20
2019-05-07T21:49:12.168Z,13.10
2019-05-07T21:51:40.885Z,13.10
2019-05-07T21:54:17.165Z,13.10
2019-05-07T21:56:56.201Z,13.00
2019-05-07T21:59:26.346Z,13.00
2019-05-07T22:01:56.526Z,13.00
2019-05-07T22:04:25.055Z,13.00
2019-05-07T22:06:54.080Z,12.90
2019-05-07T22:09:22.554Z,12.90
2019-05-07T22:11:53.545Z,12.90
2019-05-07T22:14:22.201Z,12.90
2019-05-07T22:16:54.222Z,12.90
2019-05-07T22:19:21.001Z,12.90
2019-05-07T22:21:49.487Z,12.90
2019-05-07T22:24:17.955Z,12.80
2019-05-07T22:26:46.401Z,12.80
2019-05-07T22:29:14.836Z,12.80
2019-05-07T22:31:53.894Z,12.70
2019-05-07T22:34:36.063Z,12.70
2019-05-07T22:37:04.540Z,12.70
2019-05-07T22:39:32.997Z,12.70
2019-05-07T22:42:02.336Z,12.60
2019-05-07T22:44:32.115Z,12.60
2019-05-07T22:47:02.384Z,12.60
2019-05-07T22:49:30.804Z,12.50
2019-05-07T22:51:59.212Z,12.60
2019-05-07T22:54:27.739Z,12.50
2019-05-07T22:56:57.786Z,12.50
2019-05-07T22:59:26.335Z,12.50
2019-05-07T23:01:55.085Z,12.50
2019-05-07T23:04:23.653Z,12.50
2019-05-07T23:06:52.779Z,12.50
2019-05-07T23:09:22.369Z,12.50
2019-05-07T23:11:52.573Z,12.50
2019-05-07T23:14:22.549Z,12.40
2019-05-07T23:16:52.550Z,12.40
2019-05-07T23:19:22.144Z,12.40
2019-05-07T23:21:52.111Z,12.40
2019-05-07T23:24:24.494Z,12.40
2019-05-07T23:26:53.337Z,12.40
2019-05-07T23:29:22.534Z,12.40
2019-05-07T23:31:52.889Z,12.30
2019-05-07T23:34:22.058Z,12.30
2019-05-07T23:36:52.987Z,12.30
2019-05-07T23:39:22.440Z,12.20
2019-05-07T23:41:58.448Z,12.20
2019-05-07T23:44:26.915Z,12.20
2019-05-07T23:46:55.326Z,12.20
2019-05-07T23:49:23.754Z,12.20
2019-05-07T23:51:52.989Z,12.20
2019-05-07T23:54:22.960Z,12.20
2019-05-07T23:57:05.116Z,12.20
2019-05-07T23:59:22.344Z,12.20
